Terminal Aerodrome Forecast
Issued by NWS

Home | Current Version | Previous Version | Text Only | Print | Product List | Glossary On
Versions: 1 2 3 4 5 6 7 8 9 10 11 12
602
FTUS45 KREV 140520
TAFMMH
TAF
KMMH 140520Z 1406/1506 VRB04KT P6SM BKN220
     FM141900 31009KT P6SM FEW050 SCT220
     FM150300 VRB03KT P6SM SCT040=

USA.gov is the U.S. government's official web portal to all federal, state and local government web resources and services.